Time;durP1;ratioP1;P1;durP2;ratioP2;P2;SDS_P1;SDS_P2;PMS_P1;PMS_P2;Temp;Humidity;BMP_temperature;BMP_pressure;BME280_temperature;BME280_humidity;BME280_pressure;Samples;Min_cycle;Max_cycle;Signal;HPM_P1;HPM_P2
2023/11/11 00:01:17;;;;;;;12.07;7.28;;;;;;;9.30;100.00;98706.19;6195814;28;20180;-78
2023/11/11 00:04:18;;;;;;;11.25;6.88;;;;;;;9.26;100.00;98711.63;6195794;28;20054;-79
2023/11/11 00:07:19;;;;;;;11.55;6.63;;;;;;;9.38;100.00;98701.22;6195589;28;20046;-79
2023/11/11 00:10:20;;;;;;;11.90;5.60;;;;;;;9.36;100.00;98700.53;6195462;28;20050;-79
2023/11/11 00:13:23;;;;;;;9.85;6.30;;;;;;;9.45;100.00;98699.78;6195390;28;20050;-79
2023/11/11 00:16:30;;;;;;;10.60;6.40;;;;;;;9.39;100.00;98695.91;6196895;28;20045;-79
2023/11/11 00:19:31;;;;;;;9.35;6.07;;;;;;;9.45;100.00;98698.03;6196844;28;20445;-75
2023/11/11 00:22:34;;;;;;;9.63;5.32;;;;;;;9.37;100.00;98696.94;6196366;28;20050;-74
2023/11/11 00:25:35;;;;;;;10.73;5.78;;;;;;;9.48;100.00;98696.97;6196294;28;20050;-79
2023/11/11 00:28:40;;;;;;;5.82;4.13;;;;;;;9.35;100.00;98685.84;6195103;28;20046;-75
2023/11/11 00:31:45;;;;;;;7.82;5.30;;;;;;;9.53;100.00;98683.56;6196472;28;20150;-79
2023/11/11 00:34:48;;;;;;;8.07;4.00;;;;;;;9.34;100.00;98694.59;6196280;28;20424;-75
2023/11/11 00:37:49;;;;;;;9.65;5.00;;;;;;;9.38;100.00;98689.03;6195026;28;20053;-74
2023/11/11 00:40:50;;;;;;;6.72;4.82;;;;;;;9.52;100.00;98674.94;6196135;28;20046;-79
2023/11/11 00:43:50;;;;;;;8.45;4.32;;;;;;;9.53;100.00;98678.38;6195070;28;20046;-74
2023/11/11 00:46:51;;;;;;;6.75;4.45;;;;;;;9.48;100.00;98665.72;6227398;28;20409;-74
2023/11/11 00:49:52;;;;;;;9.70;5.75;;;;;;;9.43;100.00;98666.09;6195868;28;20061;-78
2023/11/11 00:52:55;;;;;;;6.90;3.90;;;;;;;9.38;100.00;98673.41;6196100;28;20055;-74
2023/11/11 00:55:57;;;;;;;5.95;4.10;;;;;;;9.46;100.00;98673.63;6195595;28;20129;-74
2023/11/11 00:58:58;;;;;;;7.18;3.28;;;;;;;9.47;100.00;98666.66;6194161;28;20085;-74
2023/11/11 01:01:59;;;;;;;5.43;3.33;;;;;;;9.41;100.00;98667.13;6194642;28;20046;-75
2023/11/11 01:05:00;;;;;;;4.15;3.22;;;;;;;9.45;100.00;98663.34;6194756;28;20485;-78
2023/11/11 01:08:01;;;;;;;6.15;3.90;;;;;;;9.48;100.00;98661.34;6195441;28;20042;-79
2023/11/11 01:11:02;;;;;;;6.35;4.45;;;;;;;9.48;100.00;98650.91;6195905;28;20050;-78
2023/11/11 01:14:03;;;;;;;6.15;3.85;;;;;;;9.49;100.00;98662.16;6194273;28;20390;-79
2023/11/11 01:17:04;;;;;;;9.10;4.40;;;;;;;9.47;100.00;98658.84;6195346;28;20053;-79
2023/11/11 01:20:06;;;;;;;5.50;3.53;;;;;;;9.64;100.00;98653.16;6194567;28;20394;-75
2023/11/11 01:23:07;;;;;;;6.88;3.33;;;;;;;9.59;100.00;98649.25;6195415;28;20047;-75
2023/11/11 01:26:08;;;;;;;5.80;3.42;;;;;;;9.58;100.00;98637.19;6195252;28;20353;-74
2023/11/11 01:29:09;;;;;;;6.55;3.80;;;;;;;9.50;100.00;98644.78;6194087;28;20058;-75
2023/11/11 01:32:10;;;;;;;6.22;3.53;;;;;;;9.58;100.00;98638.00;6195538;28;20054;-75
2023/11/11 01:35:11;;;;;;;6.47;3.92;;;;;;;9.41;100.00;98646.31;6195773;28;20113;-74
2023/11/11 01:38:13;;;;;;;4.25;2.95;;;;;;;9.56;100.00;98639.09;6194190;28;20482;-75
2023/11/11 01:41:13;;;;;;;5.65;3.70;;;;;;;9.55;100.00;98638.22;6194017;28;20773;-75
2023/11/11 01:44:14;;;;;;;5.75;3.63;;;;;;;9.77;100.00;98632.16;6194205;28;20658;-75
2023/11/11 01:47:18;;;;;;;6.25;3.65;;;;;;;10.54;100.00;98640.72;6170914;28;20090;-79
2023/11/11 01:50:18;;;;;;;5.30;3.25;;;;;;;9.65;100.00;98630.53;6161447;28;20051;-79
2023/11/11 01:53:20;;;;;;;5.13;3.50;;;;;;;9.57;100.00;98631.13;6147479;28;20051;-79
2023/11/11 01:56:21;;;;;;;4.65;3.33;;;;;;;9.72;100.00;98631.72;6147021;29;20062;-79
2023/11/11 01:59:24;;;;;;;4.35;3.15;;;;;;;9.67;100.00;98626.03;6162026;28;20191;-80
2023/11/11 02:02:25;;;;;;;5.28;3.72;;;;;;;9.71;100.00;98624.81;6161682;28;20138;-79
2023/11/11 02:05:28;;;;;;;6.20;3.72;;;;;;;9.65;100.00;98622.72;6145655;29;20062;-79
2023/11/11 02:08:31;;;;;;;5.90;3.75;;;;;;;9.89;100.00;98617.31;6146818;28;20047;-79
2023/11/11 02:11:34;;;;;;;5.90;3.80;;;;;;;9.97;100.00;98616.69;6189201;28;20078;-79
2023/11/11 02:14:37;;;;;;;4.20;3.35;;;;;;;9.87;100.00;98614.00;6175045;28;20461;-79
2023/11/11 02:17:41;;;;;;;5.75;3.45;;;;;;;9.68;100.00;98609.47;6175208;28;20125;-75
2023/11/11 02:20:42;;;;;;;5.68;3.70;;;;;;;9.75;100.00;98608.00;6175047;28;20058;-75
2023/11/11 02:23:43;;;;;;;5.10;3.42;;;;;;;9.61;100.00;98616.09;6175325;28;20085;-80
2023/11/11 02:26:46;;;;;;;5.75;3.83;;;;;;;9.69;100.00;98606.72;6188770;28;20043;-79
2023/11/11 02:29:48;;;;;;;6.15;3.60;;;;;;;9.81;100.00;98612.72;6172146;28;20450;-79
2023/11/11 02:32:48;;;;;;;6.20;3.90;;;;;;;9.75;100.00;98610.59;6173883;28;20077;-79
2023/11/11 02:35:50;;;;;;;4.80;3.60;;;;;;;9.73;100.00;98607.31;6173189;28;20137;-79
2023/11/11 02:38:51;;;;;;;5.13;3.80;;;;;;;9.86;100.00;98601.91;6173161;28;20413;-74
2023/11/11 02:41:52;;;;;;;7.30;4.47;;;;;;;9.85;100.00;98601.09;6174342;28;20047;-74
2023/11/11 02:44:53;;;;;;;7.60;4.55;;;;;;;9.89;100.00;98597.28;6174269;28;20138;-75
2023/11/11 02:47:53;;;;;;;7.07;4.03;;;;;;;9.94;100.00;98598.69;6174098;28;20090;-74
2023/11/11 02:50:54;;;;;;;9.13;4.10;;;;;;;9.82;100.00;98596.16;6173284;28;20465;-75
2023/11/11 02:53:55;;;;;;;5.68;4.18;;;;;;;9.93;100.00;98595.28;6189179;28;20073;-74
2023/11/11 02:56:56;;;;;;;6.45;4.60;;;;;;;10.00;100.00;98595.59;6173693;28;20054;-74
2023/11/11 02:59:57;;;;;;;5.35;3.83;;;;;;;9.96;100.00;98586.38;6173964;28;20055;-74
2023/11/11 03:02:59;;;;;;;9.02;5.00;;;;;;;10.04;100.00;98589.19;6173999;28;20106;-74
2023/11/11 03:06:03;;;;;;;9.57;5.03;;;;;;;9.93;100.00;98574.44;6163082;28;20055;-74
2023/11/11 03:09:04;;;;;;;9.52;5.03;;;;;;;9.99;100.00;98579.13;6149904;28;20055;-74
2023/11/11 03:12:05;;;;;;;6.97;3.90;;;;;;;9.92;100.00;98584.97;6148333;29;20111;-74
2023/11/11 03:15:07;;;;;;;5.85;4.03;;;;;;;9.97;100.00;98581.03;6148456;28;20058;-79
2023/11/11 03:18:10;;;;;;;5.32;3.80;;;;;;;9.95;100.00;98569.91;6164617;28;20047;-79
2023/11/11 03:21:21;;;;;;;6.68;4.00;;;;;;;10.01;100.00;98573.81;6147523;28;20059;-74
2023/11/11 03:24:22;;;;;;;6.57;4.43;;;;;;;10.04;100.00;98576.16;6149424;28;20061;-73
2023/11/11 03:27:23;;;;;;;5.53;4.07;;;;;;;10.05;100.00;98570.81;6164262;28;20506;-79
2023/11/11 03:30:24;;;;;;;7.55;5.10;;;;;;;10.12;100.00;98555.50;6149295;28;20051;-74
2023/11/11 03:33:25;;;;;;;10.70;5.25;;;;;;;9.95;100.00;98554.28;6149345;28;20078;-73
2023/11/11 03:36:25;;;;;;;4.68;3.70;;;;;;;9.87;100.00;98554.09;6149311;28;20048;-74
2023/11/11 03:39:27;;;;;;;6.53;3.92;;;;;;;10.04;100.00;98561.34;6148863;28;20161;-78
2023/11/11 03:42:31;;;;;;;10.68;4.50;;;;;;;10.02;100.00;98560.63;6148800;28;20054;-78
2023/11/11 03:45:32;;;;;;;7.35;4.07;;;;;;;9.92;100.00;98562.34;6164034;28;20059;-78
2023/11/11 03:48:34;;;;;;;6.88;3.95;;;;;;;9.92;100.00;98558.91;6163176;28;20520;-74
2023/11/11 03:51:35;;;;;;;7.13;4.20;;;;;;;9.94;100.00;98557.00;6163776;28;20055;-78
2023/11/11 03:54:38;;;;;;;7.40;4.38;;;;;;;9.94;100.00;98554.41;6147497;28;20680;-78
2023/11/11 03:57:40;;;;;;;7.78;4.53;;;;;;;10.02;100.00;98559.81;6179568;28;20054;-74
2023/11/11 04:00:44;;;;;;;7.07;4.18;;;;;;;10.03;100.00;98536.25;6148428;28;20138;-78
2023/11/11 04:03:45;;;;;;;10.20;4.78;;;;;;;10.12;100.00;98536.44;6163496;28;20051;-77
2023/11/11 04:06:46;;;;;;;9.23;5.03;;;;;;;10.07;100.00;98526.41;6148785;28;20075;-78
2023/11/11 04:09:49;;;;;;;12.05;5.07;;;;;;;10.12;100.00;98520.78;6148498;28;20057;-79
2023/11/11 04:12:50;;;;;;;9.20;5.43;;;;;;;10.05;100.00;98525.69;6163306;28;20114;-78
2023/11/11 04:15:53;;;;;;;8.52;5.28;;;;;;;10.13;100.00;98518.06;6148336;28;20387;-78
2023/11/11 04:18:54;;;;;;;10.07;5.88;;;;;;;10.13;100.00;98512.84;6148286;28;20422;-78
2023/11/11 04:21:55;;;;;;;10.25;6.20;;;;;;;10.09;100.00;98506.25;6163210;28;20047;-79
2023/11/11 04:24:56;;;;;;;8.85;5.68;;;;;;;10.06;100.00;98496.88;6148321;28;20058;-78
2023/11/11 04:28:00;;;;;;;9.80;5.63;;;;;;;10.14;100.00;98498.03;6163016;28;20098;-74
2023/11/11 04:31:01;;;;;;;11.80;5.60;;;;;;;10.10;100.00;98494.84;6162947;28;20055;-74
2023/11/11 04:34:01;;;;;;;7.60;4.93;;;;;;;10.07;100.00;98497.72;6146789;28;20418;-74
2023/11/11 04:37:02;;;;;;;18.00;5.40;;;;;;;10.02;100.00;98502.47;6147861;28;20065;-74
2023/11/11 04:40:07;;;;;;;8.15;5.40;;;;;;;9.88;100.00;98493.19;6148114;28;20537;-74
2023/11/11 04:43:08;;;;;;;9.88;5.72;;;;;;;9.83;100.00;98498.78;6148097;28;20058;-74
2023/11/11 04:46:11;;;;;;;18.52;5.82;;;;;;;9.92;100.00;98501.59;6162224;28;20059;-79
2023/11/11 04:49:11;;;;;;;10.38;6.03;;;;;;;9.87;100.00;98507.19;6147748;28;20106;-79
2023/11/11 04:52:12;;;;;;;9.20;6.07;;;;;;;9.82;100.00;98504.97;6146468;29;20055;-79
2023/11/11 04:55:13;;;;;;;15.02;6.60;;;;;;;10.00;100.00;98507.81;6162426;28;20051;-78
2023/11/11 04:58:17;;;;;;;9.15;5.78;;;;;;;9.93;100.00;98503.25;6178800;28;20047;-74
2023/11/11 05:01:19;;;;;;;16.42;6.97;;;;;;;10.02;100.00;98516.34;6147649;29;20058;-74
2023/11/11 05:04:21;;;;;;;19.75;6.80;;;;;;;10.07;100.00;98508.16;6162714;28;20054;-78
2023/11/11 05:07:22;;;;;;;23.05;7.72;;;;;;;9.85;100.00;98516.91;6146598;28;20402;-74
2023/11/11 05:10:23;;;;;;;15.88;7.38;;;;;;;10.00;100.00;98514.81;6162559;28;20059;-74
2023/11/11 05:13:24;;;;;;;14.80;7.65;;;;;;;10.03;100.00;98519.78;6147523;28;20051;-74
2023/11/11 05:16:39;;;;;;;32.92;8.32;;;;;;;10.12;100.00;98519.00;6147213;28;20055;-78
2023/11/11 05:19:40;;;;;;;20.27;7.07;;;;;;;10.11;100.00;98524.34;6147441;28;20090;-79
2023/11/11 05:22:41;;;;;;;13.90;8.27;;;;;;;10.09;100.00;98527.09;6147473;28;20474;-79
2023/11/11 05:25:42;;;;;;;35.78;10.27;;;;;;;9.92;100.00;98510.22;6146515;29;20051;-79
2023/11/11 05:28:43;;;;;;;31.75;11.23;;;;;;;9.94;100.00;98523.97;6146069;28;20406;-79
2023/11/11 05:31:46;;;;;;;22.42;10.82;;;;;;;9.89;100.00;98529.56;6162333;28;20058;-79
2023/11/11 05:34:49;;;;;;;29.35;9.82;;;;;;;9.94;100.00;98525.75;6146433;28;20055;-74
2023/11/11 05:37:50;;;;;;;19.05;7.72;;;;;;;9.95;100.00;98528.22;6167691;28;20097;-79
2023/11/11 05:40:53;;;;;;;28.85;7.07;;;;;;;9.96;100.00;98531.66;6149532;28;20055;-78
2023/11/11 05:43:54;;;;;;;28.52;7.07;;;;;;;9.94;100.00;98536.97;6147329;28;20560;-78
2023/11/11 05:46:57;;;;;;;17.77;6.85;;;;;;;10.02;100.00;98534.56;6151249;28;20052;-79
2023/11/11 05:49:58;;;;;;;30.20;6.90;;;;;;;10.00;100.00;98531.28;6151667;28;20462;-78
2023/11/11 05:52:59;;;;;;;25.75;7.43;;;;;;;10.07;100.00;98535.03;6152149;28;20051;-73
2023/11/11 05:56:00;;;;;;;26.13;7.22;;;;;;;10.09;100.00;98527.91;6151570;28;20044;-73
2023/11/11 05:59:01;;;;;;;28.98;6.85;;;;;;;10.10;100.00;98533.94;6151587;28;20422;-74
2023/11/11 06:02:02;;;;;;;13.53;8.00;;;;;;;10.09;100.00;98527.09;6151611;28;20395;-74
2023/11/11 06:05:03;;;;;;;26.20;8.60;;;;;;;10.09;100.00;98527.09;6151918;28;20106;-74
2023/11/11 06:08:05;;;;;;;13.98;6.93;;;;;;;10.01;100.00;98535.53;6150275;28;20518;-74
2023/11/11 06:11:06;;;;;;;17.92;7.30;;;;;;;10.10;100.00;98533.94;6151456;28;20422;-79
2023/11/11 06:14:07;;;;;;;28.52;7.47;;;;;;;10.02;100.00;98531.16;6150462;29;20051;-79
2023/11/11 06:17:08;;;;;;;21.88;7.20;;;;;;;10.10;100.00;98518.31;6166031;28;20059;-79
2023/11/11 06:20:09;;;;;;;16.40;8.02;;;;;;;10.16;100.00;98536.03;6151186;28;20058;-78
2023/11/11 06:23:12;;;;;;;73.40;30.67;;;;;;;10.19;100.00;98535.81;6151060;28;20055;-73
2023/11/11 06:26:13;;;;;;;40.65;16.75;;;;;;;10.21;100.00;98530.44;6169076;28;20089;-74
2023/11/11 06:29:14;;;;;;;43.00;16.42;;;;;;;10.26;100.00;98530.91;6175251;28;20061;-73
2023/11/11 06:32:17;;;;;;;114.50;56.03;;;;;;;10.30;100.00;98532.31;6173756;28;20058;-79
2023/11/11 06:35:18;;;;;;;60.60;30.95;;;;;;;10.36;100.00;98533.59;6174739;28;20055;-79
2023/11/11 06:38:19;;;;;;;16.23;9.50;;;;;;;10.44;100.00;98533.78;6173875;28;20075;-79
2023/11/11 06:41:22;;;;;;;33.38;7.55;;;;;;;10.45;100.00;98551.06;6162955;28;20047;-74
2023/11/11 06:44:23;;;;;;;14.48;8.65;;;;;;;10.48;100.00;98556.03;6174463;28;20498;-79
2023/11/11 06:47:24;;;;;;;40.75;8.00;;;;;;;10.31;100.00;98554.00;6173122;28;20061;-79
2023/11/11 06:50:28;;;;;;;15.70;7.05;;;;;;;10.43;100.00;98553.78;6174672;28;20153;-74
2023/11/11 06:53:29;;;;;;;20.23;6.88;;;;;;;10.41;100.00;98550.47;6198614;28;20453;-74
2023/11/11 06:56:30;;;;;;;32.28;7.32;;;;;;;10.32;100.00;98548.66;6195869;28;20504;-79
2023/11/11 06:59:35;;;;;;;46.90;17.50;;;;;;;10.45;100.00;98541.44;6198325;28;20069;-79
2023/11/11 07:02:38;;;;;;;31.17;11.93;;;;;;;10.39;100.00;98536.75;6183822;28;20042;-79
2023/11/11 07:05:39;;;;;;;22.67;8.52;;;;;;;10.49;100.00;98542.00;6190714;28;20085;-79
2023/11/11 07:08:40;;;;;;;24.65;7.97;;;;;;;10.37;100.00;98545.66;6175081;28;20523;-79
2023/11/11 07:11:41;;;;;;;24.20;8.88;;;;;;;10.44;100.00;98539.81;6196792;28;20050;-78
2023/11/11 07:14:45;;;;;;;36.05;12.07;;;;;;;10.46;100.00;98544.91;6184081;28;20061;-74
2023/11/11 07:17:46;;;;;;;47.05;16.10;;;;;;;10.47;100.00;98539.53;6182584;28;20058;-74
2023/11/11 07:20:52;;;;;;;42.00;11.25;;;;;;;10.58;100.00;98536.00;6192206;28;20077;-74
2023/11/11 07:23:53;;;;;;;39.75;8.40;;;;;;;10.68;100.00;98530.84;6186426;28;20756;-74
2023/11/11 07:26:54;;;;;;;35.90;8.75;;;;;;;10.63;100.00;98531.22;6161377;28;20043;-79
2023/11/11 07:29:55;;;;;;;37.92;9.65;;;;;;;10.66;100.00;98527.53;6164374;28;20458;-78
2023/11/11 07:32:58;;;;;;;49.92;10.10;;;;;;;10.66;100.00;98528.34;6154752;28;20061;-78
2023/11/11 07:35:59;;;;;;;28.10;10.18;;;;;;;10.68;100.00;98518.59;6162609;28;20145;-79
2023/11/11 07:39:00;;;;;;;26.42;9.02;;;;;;;10.78;100.00;98510.00;6163056;28;20042;-74
2023/11/11 07:42:01;;;;;;;57.90;9.95;;;;;;;10.64;100.00;98508.56;6162892;28;20170;-78
2023/11/11 07:45:04;;;;;;;54.38;9.95;;;;;;;10.64;100.00;98498.97;6172371;28;20078;-78
2023/11/11 07:48:05;;;;;;;28.02;10.07;;;;;;;10.87;100.00;98497.00;6160799;28;20552;-73
2023/11/11 07:51:11;;;;;;;23.50;11.00;;;;;;;10.80;100.00;98488.03;6160358;28;20550;-73
2023/11/11 07:54:14;;;;;;;47.97;11.27;;;;;;;10.89;100.00;98496.84;6197085;28;20054;-74
2023/11/11 07:57:16;;;;;;;31.65;11.07;;;;;;;10.95;100.00;98491.09;6172915;28;20069;-74
2023/11/11 08:00:18;;;;;;;23.35;9.65;;;;;;;10.96;100.00;98487.53;6192594;28;20589;-78
2023/11/11 08:03:19;;;;;;;;;;;;;;;11.09;100.00;98484.66;6197334;28;20158;-78
2023/11/11 08:06:25;;;;;;;28.83;11.32;;;;;;;11.13;100.00;98491.28;6195833;28;19921;-79
2023/11/11 08:09:25;;;;;;;26.85;11.65;;;;;;;11.12;100.00;98483.56;6194811;28;20104;-79
2023/11/11 08:12:29;;;;;;;31.45;11.50;;;;;;;11.24;100.00;98479.88;6195479;28;20051;-79
2023/11/11 08:15:30;;;;;;;20.35;9.88;;;;;;;11.27;100.00;98487.44;6194290;28;20081;-74
2023/11/11 08:18:31;;;;;;;22.98;9.95;;;;;;;11.27;100.00;98477.81;6160735;28;20141;-73
2023/11/11 08:21:33;;;;;;;34.90;14.03;;;;;;;11.37;100.00;98485.66;6178894;28;20046;-73
2023/11/11 08:24:36;;;;;;;26.30;11.18;;;;;;;11.55;100.00;98479.75;6163818;28;20077;-79
2023/11/11 08:27:37;;;;;;;32.67;15.45;;;;;;;11.59;100.00;98475.91;6172274;28;20050;-79
2023/11/11 08:30:40;;;;;;;28.98;14.45;;;;;;;11.56;100.00;98469.16;6165079;28;20061;-78
2023/11/11 08:33:41;;;;;;;65.70;32.05;;;;;;;11.64;100.00;98476.31;6163162;28;20102;-78
2023/11/11 08:36:44;;;;;;;95.47;45.22;;;;;;;11.66;100.00;98475.22;6150462;28;20134;-78
2023/11/11 08:39:44;;;;;;;45.22;23.35;;;;;;;11.62;100.00;98473.03;6150478;28;20498;-78
2023/11/11 08:42:46;;;;;;;54.05;30.45;;;;;;;11.53;100.00;98477.28;6185257;28;20464;-79
2023/11/11 08:45:47;;;;;;;34.63;17.10;;;;;;;11.44;100.00;98472.88;6181237;28;20058;-79
2023/11/11 08:48:51;;;;;;;27.33;12.95;;;;;;;11.37;100.00;98480.44;6179665;28;20054;-78
2023/11/11 08:51:52;;;;;;;24.65;11.63;;;;;;;11.39;100.00;98486.34;6171719;28;20059;-73
2023/11/11 08:54:53;;;;;;;22.98;12.20;;;;;;;11.21;100.00;98491.41;6170768;28;20687;-78
2023/11/11 08:57:54;;;;;;;21.75;11.10;;;;;;;11.22;100.00;98485.25;6173430;28;20567;-73
2023/11/11 09:00:56;;;;;;;22.83;10.30;;;;;;;11.12;100.00;98488.78;6194401;28;20046;-74
2023/11/11 09:03:57;;;;;;;23.13;11.80;;;;;;;11.19;100.00;98485.50;6195790;28;20218;-73
2023/11/11 09:06:59;;;;;;;21.92;10.88;;;;;;;11.18;100.00;98493.47;6186556;28;20063;-78
2023/11/11 09:10:02;;;;;;;21.75;9.55;;;;;;;11.21;100.00;98485.38;6171525;28;20485;-78
2023/11/11 09:13:05;;;;;;;19.17;10.32;;;;;;;11.26;100.00;98484.03;6171410;28;20564;-78
2023/11/11 09:16:08;;;;;;;19.20;8.95;;;;;;;11.23;100.00;98484.28;6171471;28;20054;-78
2023/11/11 09:19:08;;;;;;;22.98;9.43;;;;;;;11.29;100.00;98486.34;6179761;28;20105;-73
2023/11/11 09:22:10;;;;;;;27.63;11.05;;;;;;;11.19;100.00;98475.06;6195107;28;20054;-73
2023/11/11 09:25:11;;;;;;;31.55;14.52;;;;;;;11.29;100.00;98475.91;6194356;28;20050;-73
2023/11/11 09:28:12;;;;;;;31.30;13.32;;;;;;;11.33;100.00;98470.41;6195375;28;20046;-73
2023/11/11 09:31:15;;;;;;;23.25;11.77;;;;;;;11.38;100.00;98466.41;6195609;28;20046;-78
2023/11/11 09:34:16;;;;;;;29.58;12.73;;;;;;;11.57;100.00;98456.91;6195309;28;20050;-78
2023/11/11 09:37:18;;;;;;;28.30;13.82;;;;;;;11.57;100.00;98455.16;6194271;28;20050;-73
2023/11/11 09:40:19;;;;;;;22.35;10.52;;;;;;;11.67;100.00;98455.97;6194185;28;20054;-73
2023/11/11 09:43:20;;;;;;;18.77;10.73;;;;;;;11.85;100.00;98444.78;6193868;28;20042;-78
2023/11/11 09:46:23;;;;;;;17.40;8.68;;;;;;;11.78;100.00;98444.53;6194069;28;20477;-78
2023/11/11 09:49:30;;;;;;;20.55;10.30;;;;;;;11.85;100.00;98443.00;6195026;28;20051;-78
2023/11/11 09:52:32;;;;;;;27.45;11.90;;;;;;;11.86;100.00;98435.97;6195219;28;20137;-73
2023/11/11 09:55:34;;;;;;;15.77;9.25;;;;;;;11.84;100.00;98427.44;6195089;28;20066;-78
2023/11/11 09:58:36;;;;;;;22.88;12.98;;;;;;;11.69;100.00;98417.47;6195300;28;20050;-77
2023/11/11 10:01:44;;;;;;;;;;;;;;;11.75;100.00;98423.91;6194103;28;20489;-73
2023/11/11 10:04:45;;;;;;;21.95;11.60;;;;;;;11.79;100.00;98421.84;6193950;28;19925;-73
2023/11/11 10:07:48;;;;;;;23.63;11.65;;;;;;;11.61;100.00;98412.13;6193594;28;20132;-73
2023/11/11 10:10:50;;;;;;;17.52;10.55;;;;;;;11.73;100.00;98404.09;6193077;28;20050;-73
2023/11/11 10:13:54;;;;;;;18.52;10.52;;;;;;;11.77;100.00;98403.69;6193514;28;20112;-73
2023/11/11 10:16:58;;;;;;;28.17;12.40;;;;;;;11.87;100.00;98399.25;6194959;28;20382;-73
2023/11/11 10:20:04;;;;;;;28.58;15.05;;;;;;;11.87;100.00;98399.25;6194825;28;20413;-73
2023/11/11 10:23:05;;;;;;;34.03;16.85;;;;;;;11.91;100.00;98399.00;6194856;28;20125;-73
2023/11/11 10:26:06;;;;;;;20.40;11.68;;;;;;;11.86;100.00;98389.78;6194533;28;20453;-73
2023/11/11 10:29:08;;;;;;;16.10;9.88;;;;;;;12.01;100.00;98395.38;6159565;28;20046;-78
2023/11/11 10:32:11;;;;;;;22.58;12.10;;;;;;;12.02;100.00;98396.22;6172314;28;20533;-77
2023/11/11 10:35:12;;;;;;;20.67;11.35;;;;;;;11.99;100.00;98384.25;6173390;28;20054;-78
2023/11/11 10:38:13;;;;;;;27.55;12.25;;;;;;;11.98;100.00;98387.00;6167463;28;20526;-73
2023/11/11 10:41:14;;;;;;;25.02;12.75;;;;;;;11.95;100.00;98377.66;6160571;28;20568;-73
2023/11/11 10:44:15;;;;;;;28.63;14.35;;;;;;;12.00;100.00;98380.66;6162250;28;20062;-73
2023/11/11 10:47:18;;;;;;;34.20;16.85;;;;;;;12.02;100.00;98370.06;6158699;28;20506;-77
2023/11/11 10:50:19;;;;;;;20.13;10.23;;;;;;;11.82;100.00;98370.13;6173104;28;20055;-77
2023/11/11 10:53:27;;;;;;;22.42;12.70;;;;;;;11.97;100.00;98367.06;6165867;28;20133;-77
2023/11/11 10:56:31;;;;;;;18.55;10.77;;;;;;;12.00;100.00;98369.38;6167099;28;20057;-72
2023/11/11 10:59:36;;;;;;;21.27;10.68;;;;;;;12.04;100.00;98363.72;6160002;28;20074;-73
2023/11/11 11:02:39;;;;;;;23.60;13.10;;;;;;;12.07;100.00;98358.22;6164263;28;20493;-74
2023/11/11 11:05:44;;;;;;;24.30;12.23;;;;;;;12.24;100.00;98350.56;6174234;28;20054;-74
2023/11/11 11:09:06;;;;;;;21.60;10.68;;;;;;;12.34;100.00;98351.34;6166470;28;20125;-78
2023/11/11 11:12:21;;;;;;;22.75;10.90;;;;;;;12.35;100.00;98346.94;6166441;28;20118;-78
2023/11/11 11:15:22;;;;;;;20.00;10.32;;;;;;;12.24;100.00;98342.72;6171610;28;20047;-77
2023/11/11 11:18:24;;;;;;;15.88;9.95;;;;;;;12.27;100.00;98348.50;6173937;28;20554;-78
2023/11/11 11:21:28;;;;;;;17.88;9.90;;;;;;;12.22;100.00;98340.25;6173701;28;20453;-78
2023/11/11 11:24:32;;;;;;;19.10;8.75;;;;;;;12.35;100.00;98352.97;6173689;28;20050;-77
2023/11/11 11:27:33;;;;;;;15.07;9.25;;;;;;;12.44;100.00;98346.06;6205185;28;20057;-74
2023/11/11 11:30:34;;;;;;;18.80;8.65;;;;;;;12.48;100.00;98348.22;6198054;28;20344;-73
2023/11/11 11:33:39;;;;;;;25.20;13.52;;;;;;;12.55;100.00;98342.41;6197274;28;20058;-74
2023/11/11 11:36:54;;;;;;;20.45;10.70;;;;;;;12.52;100.00;98345.31;6197269;28;20050;-77
2023/11/11 11:40:08;;;;;;;17.33;9.35;;;;;;;12.45;100.00;98343.28;6197402;28;20126;-78
2023/11/11 11:43:12;;;;;;;18.58;9.07;;;;;;;12.57;100.00;98345.69;6195624;28;20050;-78
2023/11/11 11:46:13;;;;;;;15.70;9.25;;;;;;;12.59;100.00;98344.56;6197061;28;20141;-74
2023/11/11 11:49:15;;;;;;;19.60;10.35;;;;;;;12.55;100.00;98345.03;6195755;28;20054;-73
2023/11/11 11:52:20;;;;;;;16.95;10.50;;;;;;;12.54;100.00;98340.75;6197333;28;20058;-78
2023/11/11 11:55:22;;;;;;;18.02;10.45;;;;;;;12.46;100.00;98337.09;6197066;28;20050;-73
2023/11/11 11:58:23;;;;;;;21.80;11.10;;;;;;;12.41;99.86;98335.88;6195941;28;20141;-74
2023/11/11 12:01:31;;;;;;;23.25;11.70;;;;;;;12.52;100.00;98340.91;6195918;28;20054;-78
2023/11/11 12:04:32;;;;;;;23.90;11.27;;;;;;;12.54;100.00;98340.75;6196814;28;20064;-77
2023/11/11 12:07:38;;;;;;;21.13;10.82;;;;;;;12.53;100.00;98342.56;6196755;28;20394;-78
2023/11/11 12:10:48;;;;;;;21.73;11.48;;;;;;;12.58;100.00;98329.88;6195502;28;20429;-78
2023/11/11 12:13:50;;;;;;;20.50;11.57;;;;;;;12.58;100.00;98327.25;6196615;28;20077;-78
2023/11/11 12:16:56;;;;;;;20.63;11.50;;;;;;;12.63;100.00;98330.22;6195222;28;20046;-74
2023/11/11 12:19:57;;;;;;;24.33;13.23;;;;;;;12.69;100.00;98320.97;6196726;28;20054;-77
2023/11/11 12:22:58;;;;;;;20.63;13.15;;;;;;;12.74;100.00;98320.50;6195262;28;20050;-77
2023/11/11 12:26:01;;;;;;;21.73;12.73;;;;;;;12.70;100.00;98314.75;6195545;28;20346;-77
2023/11/11 12:29:02;;;;;;;23.85;12.75;;;;;;;12.52;100.00;98314.75;6196476;28;20050;-73
2023/11/11 12:32:05;;;;;;;27.15;14.35;;;;;;;12.41;100.00;98310.53;6196271;28;20398;-73
2023/11/11 12:35:07;;;;;;;21.55;12.50;;;;;;;12.38;100.00;98316.09;6196277;28;20054;-73
2023/11/11 12:38:34;;;;;;;21.95;11.88;;;;;;;12.40;100.00;98316.75;6195414;28;20516;-78
2023/11/11 12:41:38;;;;;;;19.65;11.13;;;;;;;12.40;100.00;98318.56;6192909;28;20054;-78
2023/11/11 12:44:42;;;;;;;21.20;11.93;;;;;;;12.35;100.00;98310.31;6195883;28;20539;-78
2023/11/11 12:47:52;;;;;;;25.58;12.68;;;;;;;12.29;100.00;98303.88;6194739;28;20399;-74
2023/11/11 12:50:53;;;;;;;22.60;12.35;;;;;;;12.23;100.00;98307.91;6147038;28;20047;-74
2023/11/11 12:53:55;;;;;;;21.75;12.43;;;;;;;12.04;100.00;98303.59;6147411;28;20061;-78
2023/11/11 12:56:56;;;;;;;25.45;14.68;;;;;;;12.03;100.00;98298.53;6146337;28;20174;-78
2023/11/11 12:59:57;;;;;;;27.48;13.80;;;;;;;12.03;100.00;98301.16;6162742;28;20054;-78
2023/11/11 13:03:00;;;;;;;23.45;13.32;;;;;;;12.02;100.00;98302.09;6146181;28;20569;-78
2023/11/11 13:06:06;;;;;;;26.58;14.07;;;;;;;12.04;100.00;98300.16;6146431;28;20483;-78
2023/11/11 13:09:19;;;;;;;26.45;14.93;;;;;;;12.00;100.00;98298.81;6147415;28;20058;-78
2023/11/11 13:12:23;;;;;;;26.85;14.68;;;;;;;12.03;100.00;98294.13;6146522;28;20058;-74
2023/11/11 13:15:24;;;;;;;31.80;16.02;;;;;;;11.99;100.00;98295.38;6147214;28;20512;-74
2023/11/11 13:18:24;;;;;;;31.05;15.77;;;;;;;11.97;100.00;98291.28;6159831;28;20141;-78
2023/11/11 13:21:28;;;;;;;39.28;19.63;;;;;;;11.87;100.00;98286.06;6164626;28;20046;-79
2023/11/11 13:24:31;;;;;;;38.60;16.90;;;;;;;11.82;100.00;98285.66;6170865;28;20047;-79
2023/11/11 13:27:32;;;;;;;31.52;15.88;;;;;;;11.83;100.00;98292.53;6171134;28;20383;-79
2023/11/11 13:30:33;;;;;;;38.08;17.45;;;;;;;11.76;100.00;98287.06;6170273;28;20054;-74
2023/11/11 13:33:33;;;;;;;43.85;22.73;;;;;;;11.83;100.00;98287.31;6170145;28;20391;-75
2023/11/11 13:36:35;;;;;;;42.35;22.17;;;;;;;11.80;100.00;98280.59;6169773;28;20066;-75
2023/11/11 13:39:48;;;;;;;35.57;17.20;;;;;;;11.77;100.00;98273.03;6170090;28;20054;-75
2023/11/11 13:42:51;;;;;;;33.72;16.38;;;;;;;11.75;100.00;98279.38;6169575;28;20398;-75
2023/11/11 13:45:52;;;;;;;41.60;16.95;;;;;;;11.68;100.00;98263.47;6170805;28;20137;-75
2023/11/11 13:48:56;;;;;;;38.13;18.58;;;;;;;11.64;100.00;98264.72;6170903;28;20106;-75
2023/11/11 13:51:57;;;;;;;32.22;16.15;;;;;;;11.58;100.00;98266.09;6162163;28;20055;-75
2023/11/11 13:54:58;;;;;;;30.10;14.77;;;;;;;11.44;100.00;98270.00;6145916;28;20110;-75
2023/11/11 13:58:00;;;;;;;34.88;16.83;;;;;;;11.44;100.00;98272.59;6148325;28;20061;-75
2023/11/11 14:01:04;;;;;;;30.02;16.08;;;;;;;11.39;100.00;98271.41;6157484;28;20055;-75